sensor_id;sensor_type;location;lat;lon;timestamp;temperature;humidity
37646;DHT22;23489;49.600;6.138;2022-09-03T00:00:53;18.50;74.50
37646;DHT22;23489;49.600;6.138;2022-09-03T00:03:35;18.40;74.80
37646;DHT22;23489;49.600;6.138;2022-09-03T00:11:39;18.30;75.30
37646;DHT22;23489;49.600;6.138;2022-09-03T00:14:20;18.20;75.50
37646;DHT22;23489;49.600;6.138;2022-09-03T00:16:53;18.20;75.60
37646;DHT22;23489;49.600;6.138;2022-09-03T00:19:23;18.20;75.60
37646;DHT22;23489;49.600;6.138;2022-09-03T00:21:51;18.20;75.80
37646;DHT22;23489;49.600;6.138;2022-09-03T00:24:20;18.20;76.10
37646;DHT22;23489;49.600;6.138;2022-09-03T00:26:49;18.20;76.40
37646;DHT22;23489;49.600;6.138;2022-09-03T00:29:27;18.10;76.60
37646;DHT22;23489;49.600;6.138;2022-09-03T00:31:56;18.10;76.80
37646;DHT22;23489;49.600;6.138;2022-09-03T00:34:38;18.10;77.30
37646;DHT22;23489;49.600;6.138;2022-09-03T00:37:09;18.10;77.70
37646;DHT22;23489;49.600;6.138;2022-09-03T00:39:35;18.00;77.90
37646;DHT22;23489;49.600;6.138;2022-09-03T00:47:31;18.00;78.00
37646;DHT22;23489;49.600;6.138;2022-09-03T00:52:47;18.00;78.20
37646;DHT22;23489;49.600;6.138;2022-09-03T00:58:09;18.00;78.50
37646;DHT22;23489;49.600;6.138;2022-09-03T01:00:40;18.00;78.60
37646;DHT22;23489;49.600;6.138;2022-09-03T01:29:23;17.90;84.60
37646;DHT22;23489;49.600;6.138;2022-09-03T01:32:02;18.00;85.30
37646;DHT22;23489;49.600;6.138;2022-09-03T01:37:14;17.90;86.80
37646;DHT22;23489;49.600;6.138;2022-09-03T01:39:50;17.80;86.70
37646;DHT22;23489;49.600;6.138;2022-09-03T01:45:22;17.70;87.50
37646;DHT22;23489;49.600;6.138;2022-09-03T01:50:46;17.70;88.80
37646;DHT22;23489;49.600;6.138;2022-09-03T01:56:03;17.70;89.00
37646;DHT22;23489;49.600;6.138;2022-09-03T01:58:41;17.70;89.00
37646;DHT22;23489;49.600;6.138;2022-09-03T02:01:16;17.70;89.70
37646;DHT22;23489;49.600;6.138;2022-09-03T02:03:45;17.70;89.70
37646;DHT22;23489;49.600;6.138;2022-09-03T02:06:11;17.70;90.20
37646;DHT22;23489;49.600;6.138;2022-09-03T02:08:37;17.70;90.80
37646;DHT22;23489;49.600;6.138;2022-09-03T02:11:04;17.60;91.40
37646;DHT22;23489;49.600;6.138;2022-09-03T02:13:33;17.50;92.20
37646;DHT22;23489;49.600;6.138;2022-09-03T02:16:02;17.50;93.20
37646;DHT22;23489;49.600;6.138;2022-09-03T02:18:30;17.50;94.40
37646;DHT22;23489;49.600;6.138;2022-09-03T02:20:57;17.40;95.40
37646;DHT22;23489;49.600;6.138;2022-09-03T02:23:23;17.40;97.00
37646;DHT22;23489;49.600;6.138;2022-09-03T02:25:50;17.30;98.20
37646;DHT22;23489;49.600;6.138;2022-09-03T02:28:17;17.30;99.90
37646;DHT22;23489;49.600;6.138;2022-09-03T02:30:42;17.30;99.90
37646;DHT22;23489;49.600;6.138;2022-09-03T02:33:08;17.30;99.90
37646;DHT22;23489;49.600;6.138;2022-09-03T02:35:34;17.20;99.90
37646;DHT22;23489;49.600;6.138;2022-09-03T02:38:13;17.20;99.90
37646;DHT22;23489;49.600;6.138;2022-09-03T02:40:39;17.20;99.90
37646;DHT22;23489;49.600;6.138;2022-09-03T02:43:05;17.20;99.90
37646;DHT22;23489;49.600;6.138;2022-09-03T02:45:32;17.20;99.90
37646;DHT22;23489;49.600;6.138;2022-09-03T02:48:00;17.10;99.90
37646;DHT22;23489;49.600;6.138;2022-09-03T02:50:26;17.10;99.90
37646;DHT22;23489;49.600;6.138;2022-09-03T02:52:51;17.10;99.90
37646;DHT22;23489;49.600;6.138;2022-09-03T02:55:17;17.10;99.90
37646;DHT22;23489;49.600;6.138;2022-09-03T02:57:44;17.10;99.90
37646;DHT22;23489;49.600;6.138;2022-09-03T03:00:10;17.10;99.90
37646;DHT22;23489;49.600;6.138;2022-09-03T03:02:36;17.10;99.90
37646;DHT22;23489;49.600;6.138;2022-09-03T03:05:02;17.10;99.90
37646;DHT22;23489;49.600;6.138;2022-09-03T03:07:29;17.10;99.90
37646;DHT22;23489;49.600;6.138;2022-09-03T03:09:56;17.00;99.90
37646;DHT22;23489;49.600;6.138;2022-09-03T03:12:21;17.00;99.90
37646;DHT22;23489;49.600;6.138;2022-09-03T03:14:47;17.00;99.90
37646;DHT22;23489;49.600;6.138;2022-09-03T03:17:12;17.00;99.90
37646;DHT22;23489;49.600;6.138;2022-09-03T03:19:38;17.00;99.90
37646;DHT22;23489;49.600;6.138;2022-09-03T03:22:03;16.90;99.90
37646;DHT22;23489;49.600;6.138;2022-09-03T03:24:29;16.90;99.90
37646;DHT22;23489;49.600;6.138;2022-09-03T03:26:55;16.90;99.90
37646;DHT22;23489;49.600;6.138;2022-09-03T03:29:22;16.80;99.90
37646;DHT22;23489;49.600;6.138;2022-09-03T03:31:49;16.80;99.90
37646;DHT22;23489;49.600;6.138;2022-09-03T03:34:15;16.80;99.90
37646;DHT22;23489;49.600;6.138;2022-09-03T03:36:40;16.80;99.90
37646;DHT22;23489;49.600;6.138;2022-09-03T03:39:06;16.70;99.90
37646;DHT22;23489;49.600;6.138;2022-09-03T03:41:32;16.70;99.90
37646;DHT22;23489;49.600;6.138;2022-09-03T03:43:59;16.60;99.90
37646;DHT22;23489;49.600;6.138;2022-09-03T03:46:28;16.60;99.90
37646;DHT22;23489;49.600;6.138;2022-09-03T03:48:54;16.60;99.90
37646;DHT22;23489;49.600;6.138;2022-09-03T03:51:19;16.60;99.90
37646;DHT22;23489;49.600;6.138;2022-09-03T03:53:46;16.60;99.90
37646;DHT22;23489;49.600;6.138;2022-09-03T03:56:12;16.70;99.90
37646;DHT22;23489;49.600;6.138;2022-09-03T03:58:38;16.70;99.90
37646;DHT22;23489;49.600;6.138;2022-09-03T04:01:12;16.70;99.90
37646;DHT22;23489;49.600;6.138;2022-09-03T04:03:38;16.70;99.90
37646;DHT22;23489;49.600;6.138;2022-09-03T04:06:05;16.70;99.90
37646;DHT22;23489;49.600;6.138;2022-09-03T04:08:33;16.70;99.90
37646;DHT22;23489;49.600;6.138;2022-09-03T04:10:59;16.70;99.90
37646;DHT22;23489;49.600;6.138;2022-09-03T04:13:29;16.60;99.90
37646;DHT22;23489;49.600;6.138;2022-09-03T04:16:00;16.60;99.90
37646;DHT22;23489;49.600;6.138;2022-09-03T04:18:26;16.60;99.90
37646;DHT22;23489;49.600;6.138;2022-09-03T04:20:51;16.60;99.90
37646;DHT22;23489;49.600;6.138;2022-09-03T04:23:17;16.60;99.90
37646;DHT22;23489;49.600;6.138;2022-09-03T04:25:43;16.70;99.90
37646;DHT22;23489;49.600;6.138;2022-09-03T04:28:09;16.60;99.90
37646;DHT22;23489;49.600;6.138;2022-09-03T04:30:36;16.70;99.90
37646;DHT22;23489;49.600;6.138;2022-09-03T04:33:01;16.70;99.90
37646;DHT22;23489;49.600;6.138;2022-09-03T04:35:27;16.70;99.90
37646;DHT22;23489;49.600;6.138;2022-09-03T04:37:54;16.70;99.90
37646;DHT22;23489;49.600;6.138;2022-09-03T04:40:21;16.60;99.90
37646;DHT22;23489;49.600;6.138;2022-09-03T04:42:47;16.70;99.90
37646;DHT22;23489;49.600;6.138;2022-09-03T04:45:12;16.70;99.90
37646;DHT22;23489;49.600;6.138;2022-09-03T04:47:43;16.70;99.90
37646;DHT22;23489;49.600;6.138;2022-09-03T04:50:11;16.70;99.90
37646;DHT22;23489;49.600;6.138;2022-09-03T04:52:37;16.70;99.90
37646;DHT22;23489;49.600;6.138;2022-09-03T04:55:02;16.70;99.90
37646;DHT22;23489;49.600;6.138;2022-09-03T04:57:28;16.60;99.90
37646;DHT22;23489;49.600;6.138;2022-09-03T04:59:59;16.60;99.90
37646;DHT22;23489;49.600;6.138;2022-09-03T05:02:24;16.60;99.90
37646;DHT22;23489;49.600;6.138;2022-09-03T05:04:50;16.60;99.90
37646;DHT22;23489;49.600;6.138;2022-09-03T05:07:17;16.60;99.90
37646;DHT22;23489;49.600;6.138;2022-09-03T05:09:43;16.60;99.90
37646;DHT22;23489;49.600;6.138;2022-09-03T05:12:09;16.60;99.90
37646;DHT22;23489;49.600;6.138;2022-09-03T05:14:35;16.60;99.90
37646;DHT22;23489;49.600;6.138;2022-09-03T05:17:00;16.60;99.90
37646;DHT22;23489;49.600;6.138;2022-09-03T05:19:26;16.60;99.90
37646;DHT22;23489;49.600;6.138;2022-09-03T05:21:52;16.60;99.90
37646;DHT22;23489;49.600;6.138;2022-09-03T05:24:17;16.60;99.90
37646;DHT22;23489;49.600;6.138;2022-09-03T05:26:43;16.60;99.90
37646;DHT22;23489;49.600;6.138;2022-09-03T05:29:08;16.60;99.90
37646;DHT22;23489;49.600;6.138;2022-09-03T05:31:35;16.60;99.90
37646;DHT22;23489;49.600;6.138;2022-09-03T05:34:03;16.70;99.90
37646;DHT22;23489;49.600;6.138;2022-09-03T05:36:33;16.70;99.90
37646;DHT22;23489;49.600;6.138;2022-09-03T05:38:59;16.70;99.90
37646;DHT22;23489;49.600;6.138;2022-09-03T05:41:26;16.70;99.90
37646;DHT22;23489;49.600;6.138;2022-09-03T05:43:52;16.80;99.90
37646;DHT22;23489;49.600;6.138;2022-09-03T05:46:25;16.80;99.90
37646;DHT22;23489;49.600;6.138;2022-09-03T05:48:59;16.80;99.90
37646;DHT22;23489;49.600;6.138;2022-09-03T05:51:25;16.90;99.90
37646;DHT22;23489;49.600;6.138;2022-09-03T05:53:51;16.90;99.90
37646;DHT22;23489;49.600;6.138;2022-09-03T05:56:18;17.00;99.90
37646;DHT22;23489;49.600;6.138;2022-09-03T05:58:45;17.00;99.90
37646;DHT22;23489;49.600;6.138;2022-09-03T06:01:25;17.00;99.90
37646;DHT22;23489;49.600;6.138;2022-09-03T06:03:58;17.10;99.90
37646;DHT22;23489;49.600;6.138;2022-09-03T06:06:24;17.10;99.90
37646;DHT22;23489;49.600;6.138;2022-09-03T06:08:50;17.00;99.90
37646;DHT22;23489;49.600;6.138;2022-09-03T06:11:16;17.00;99.90
37646;DHT22;23489;49.600;6.138;2022-09-03T06:13:42;17.10;99.90
37646;DHT22;23489;49.600;6.138;2022-09-03T06:16:07;17.10;99.90
37646;DHT22;23489;49.600;6.138;2022-09-03T06:18:33;17.20;99.90
37646;DHT22;23489;49.600;6.138;2022-09-03T06:21:00;17.20;99.90
37646;DHT22;23489;49.600;6.138;2022-09-03T06:23:26;17.30;99.90
37646;DHT22;23489;49.600;6.138;2022-09-03T06:26:02;17.40;99.90
37646;DHT22;23489;49.600;6.138;2022-09-03T06:28:29;17.50;99.90
37646;DHT22;23489;49.600;6.138;2022-09-03T06:30:56;17.70;99.90
37646;DHT22;23489;49.600;6.138;2022-09-03T06:33:22;17.80;99.90
37646;DHT22;23489;49.600;6.138;2022-09-03T06:35:55;17.90;99.90
37646;DHT22;23489;49.600;6.138;2022-09-03T06:38:23;18.00;99.90
37646;DHT22;23489;49.600;6.138;2022-09-03T06:40:55;18.00;99.90
37646;DHT22;23489;49.600;6.138;2022-09-03T06:43:21;17.90;99.90
37646;DHT22;23489;49.600;6.138;2022-09-03T06:45:57;17.70;99.90
37646;DHT22;23489;49.600;6.138;2022-09-03T06:48:23;17.70;99.90
37646;DHT22;23489;49.600;6.138;2022-09-03T06:50:55;17.60;99.90
37646;DHT22;23489;49.600;6.138;2022-09-03T06:53:22;17.70;99.90
37646;DHT22;23489;49.600;6.138;2022-09-03T06:55:54;17.70;99.90
37646;DHT22;23489;49.600;6.138;2022-09-03T06:58:20;17.90;99.90
37646;DHT22;23489;49.600;6.138;2022-09-03T07:00:47;18.00;99.90
37646;DHT22;23489;49.600;6.138;2022-09-03T07:03:14;18.10;99.90
37646;DHT22;23489;49.600;6.138;2022-09-03T07:05:40;18.10;99.90
37646;DHT22;23489;49.600;6.138;2022-09-03T07:08:07;18.20;99.90
37646;DHT22;23489;49.600;6.138;2022-09-03T07:10:37;18.30;99.90
37646;DHT22;23489;49.600;6.138;2022-09-03T07:13:03;18.80;99.90
37646;DHT22;23489;49.600;6.138;2022-09-03T07:15:33;19.10;99.90
37646;DHT22;23489;49.600;6.138;2022-09-03T07:17:59;19.10;99.90
37646;DHT22;23489;49.600;6.138;2022-09-03T07:20:25;19.10;99.90
37646;DHT22;23489;49.600;6.138;2022-09-03T07:22:54;19.10;99.90
37646;DHT22;23489;49.600;6.138;2022-09-03T07:25:21;19.00;99.90
37646;DHT22;23489;49.600;6.138;2022-09-03T07:27:46;19.00;99.90
37646;DHT22;23489;49.600;6.138;2022-09-03T07:30:15;18.90;99.90
37646;DHT22;23489;49.600;6.138;2022-09-03T07:32:41;19.10;99.90
37646;DHT22;23489;49.600;6.138;2022-09-03T07:35:07;19.70;99.90
37646;DHT22;23489;49.600;6.138;2022-09-03T07:37:32;21.30;99.90
37646;DHT22;23489;49.600;6.138;2022-09-03T07:39:59;22.80;99.90
37646;DHT22;23489;49.600;6.138;2022-09-03T07:42:26;23.90;99.90
37646;DHT22;23489;49.600;6.138;2022-09-03T07:44:52;24.90;99.90
37646;DHT22;23489;49.600;6.138;2022-09-03T07:47:18;25.10;99.90
37646;DHT22;23489;49.600;6.138;2022-09-03T07:49:44;24.60;99.90
37646;DHT22;23489;49.600;6.138;2022-09-03T07:52:09;24.10;99.90
37646;DHT22;23489;49.600;6.138;2022-09-03T07:54:35;23.50;99.90
37646;DHT22;23489;49.600;6.138;2022-09-03T07:57:00;23.10;99.90
37646;DHT22;23489;49.600;6.138;2022-09-03T07:59:26;22.60;99.90
37646;DHT22;23489;49.600;6.138;2022-09-03T08:01:52;22.60;99.90
37646;DHT22;23489;49.600;6.138;2022-09-03T08:04:17;22.50;99.90
37646;DHT22;23489;49.600;6.138;2022-09-03T08:06:43;22.60;99.90
37646;DHT22;23489;49.600;6.138;2022-09-03T08:09:09;22.50;99.90
37646;DHT22;23489;49.600;6.138;2022-09-03T08:11:36;22.40;99.90
37646;DHT22;23489;49.600;6.138;2022-09-03T08:14:06;22.40;99.90
37646;DHT22;23489;49.600;6.138;2022-09-03T08:16:33;22.20;99.90
37646;DHT22;23489;49.600;6.138;2022-09-03T08:18:59;22.10;99.90
37646;DHT22;23489;49.600;6.138;2022-09-03T08:21:25;22.00;99.90
37646;DHT22;23489;49.600;6.138;2022-09-03T08:23:51;21.90;99.90
37646;DHT22;23489;49.600;6.138;2022-09-03T08:26:18;22.00;99.90
37646;DHT22;23489;49.600;6.138;2022-09-03T08:28:44;22.20;99.90
37646;DHT22;23489;49.600;6.138;2022-09-03T08:31:17;23.00;99.90
37646;DHT22;23489;49.600;6.138;2022-09-03T08:33:44;24.60;99.90
37646;DHT22;23489;49.600;6.138;2022-09-03T08:36:13;25.90;99.90
37646;DHT22;23489;49.600;6.138;2022-09-03T08:38:40;27.50;99.90
37646;DHT22;23489;49.600;6.138;2022-09-03T08:41:16;29.00;99.60
37646;DHT22;23489;49.600;6.138;2022-09-03T08:44:10;29.40;97.40
37646;DHT22;23489;49.600;6.138;2022-09-03T08:49:33;30.00;94.20
37646;DHT22;23489;49.600;6.138;2022-09-03T08:52:02;29.30;95.30
37646;DHT22;23489;49.600;6.138;2022-09-03T08:54:31;29.80;94.30
37646;DHT22;23489;49.600;6.138;2022-09-03T08:57:01;29.60;94.00
37646;DHT22;23489;49.600;6.138;2022-09-03T08:59:31;30.20;93.80
37646;DHT22;23489;49.600;6.138;2022-09-03T09:02:19;30.30;93.20
37646;DHT22;23489;49.600;6.138;2022-09-03T09:05:11;30.50;91.40
37646;DHT22;23489;49.600;6.138;2022-09-03T09:07:41;29.30;92.80
37646;DHT22;23489;49.600;6.138;2022-09-03T09:10:28;28.40;94.00
37646;DHT22;23489;49.600;6.138;2022-09-03T09:15:47;28.30;94.90
37646;DHT22;23489;49.600;6.138;2022-09-03T09:21:20;28.30;95.00
37646;DHT22;23489;49.600;6.138;2022-09-03T09:23:48;27.90;94.30
37646;DHT22;23489;49.600;6.138;2022-09-03T09:26:16;27.00;95.60
37646;DHT22;23489;49.600;6.138;2022-09-03T09:28:44;26.80;96.00
37646;DHT22;23489;49.600;6.138;2022-09-03T09:31:10;26.50;96.60
37646;DHT22;23489;49.600;6.138;2022-09-03T09:33:39;25.90;97.40
37646;DHT22;23489;49.600;6.138;2022-09-03T09:36:15;25.50;98.70
37646;DHT22;23489;49.600;6.138;2022-09-03T09:38:41;25.30;98.50
37646;DHT22;23489;49.600;6.138;2022-09-03T09:41:08;25.10;99.40
37646;DHT22;23489;49.600;6.138;2022-09-03T09:43:34;24.70;99.90
37646;DHT22;23489;49.600;6.138;2022-09-03T09:46:05;24.70;99.70
37646;DHT22;23489;49.600;6.138;2022-09-03T09:48:31;24.90;99.90
37646;DHT22;23489;49.600;6.138;2022-09-03T09:53:30;24.40;99.90
37646;DHT22;23489;49.600;6.138;2022-09-03T09:55:56;24.00;99.90
37646;DHT22;23489;49.600;6.138;2022-09-03T09:58:25;23.60;99.90
37646;DHT22;23489;49.600;6.138;2022-09-03T10:03:23;23.40;99.90
37646;DHT22;23489;49.600;6.138;2022-09-03T10:06:23;23.20;99.90
37646;DHT22;23489;49.600;6.138;2022-09-03T10:09:18;23.20;99.90
37646;DHT22;23489;49.600;6.138;2022-09-03T10:12:30;23.40;99.90
37646;DHT22;23489;49.600;6.138;2022-09-03T10:14:33;23.40;99.90
37646;DHT22;23489;49.600;6.138;2022-09-03T10:17:02;23.50;99.90
37646;DHT22;23489;49.600;6.138;2022-09-03T10:19:36;23.40;99.90
37646;DHT22;23489;49.600;6.138;2022-09-03T10:22:06;23.40;99.90
37646;DHT22;23489;49.600;6.138;2022-09-03T10:24:45;23.30;99.90
37646;DHT22;23489;49.600;6.138;2022-09-03T10:27:13;23.40;99.90
37646;DHT22;23489;49.600;6.138;2022-09-03T10:29:42;23.40;99.90
37646;DHT22;23489;49.600;6.138;2022-09-03T10:37:13;22.50;99.90
37646;DHT22;23489;49.600;6.138;2022-09-03T10:47:41;23.50;99.90
37646;DHT22;23489;49.600;6.138;2022-09-03T10:53:06;23.80;99.90
37646;DHT22;23489;49.600;6.138;2022-09-03T10:56:21;24.30;99.90
37646;DHT22;23489;49.600;6.138;2022-09-03T11:03:47;23.40;99.90
37646;DHT22;23489;49.600;6.138;2022-09-03T11:06:15;23.00;99.90
37646;DHT22;23489;49.600;6.138;2022-09-03T11:08:45;22.80;99.90
37646;DHT22;23489;49.600;6.138;2022-09-03T11:11:17;22.60;99.90
37646;DHT22;23489;49.600;6.138;2022-09-03T11:14:10;22.30;99.90
37646;DHT22;23489;49.600;6.138;2022-09-03T11:16:47;22.30;99.90
37646;DHT22;23489;49.600;6.138;2022-09-03T11:19:21;22.20;99.90
37646;DHT22;23489;49.600;6.138;2022-09-03T11:21:48;22.30;99.90
37646;DHT22;23489;49.600;6.138;2022-09-03T11:24:21;22.40;99.90
37646;DHT22;23489;49.600;6.138;2022-09-03T11:26:56;22.10;99.90
37646;DHT22;23489;49.600;6.138;2022-09-03T11:29:33;22.10;99.90
37646;DHT22;23489;49.600;6.138;2022-09-03T11:32:15;22.20;99.90
37646;DHT22;23489;49.600;6.138;2022-09-03T11:34:48;22.20;99.90
37646;DHT22;23489;49.600;6.138;2022-09-03T11:40:04;21.70;99.90
37646;DHT22;23489;49.600;6.138;2022-09-03T11:42:33;21.80;99.90
37646;DHT22;23489;49.600;6.138;2022-09-03T11:45:12;22.00;99.90
37646;DHT22;23489;49.600;6.138;2022-09-03T11:47:43;22.30;99.90
37646;DHT22;23489;49.600;6.138;2022-09-03T11:50:30;22.30;99.90
37646;DHT22;23489;49.600;6.138;2022-09-03T11:56:00;22.20;99.90
37646;DHT22;23489;49.600;6.138;2022-09-03T11:58:34;22.10;99.90
37646;DHT22;23489;49.600;6.138;2022-09-03T12:01:03;21.90;99.90
37646;DHT22;23489;49.600;6.138;2022-09-03T12:03:44;21.60;99.90
37646;DHT22;23489;49.600;6.138;2022-09-03T12:08:58;20.50;99.90
37646;DHT22;23489;49.600;6.138;2022-09-03T12:14:01;19.40;99.90
37646;DHT22;23489;49.600;6.138;2022-09-03T12:19:35;17.60;99.90
37646;DHT22;23489;49.600;6.138;2022-09-03T12:22:02;17.00;99.90
37646;DHT22;23489;49.600;6.138;2022-09-03T12:24:28;16.80;99.90
37646;DHT22;23489;49.600;6.138;2022-09-03T12:27:00;16.70;99.90
37646;DHT22;23489;49.600;6.138;2022-09-03T12:29:30;16.70;99.90
37646;DHT22;23489;49.600;6.138;2022-09-03T12:32:03;16.70;99.90
37646;DHT22;23489;49.600;6.138;2022-09-03T12:34:30;16.70;99.90
37646;DHT22;23489;49.600;6.138;2022-09-03T12:36:56;16.80;99.90
37646;DHT22;23489;49.600;6.138;2022-09-03T12:39:25;16.90;99.90
37646;DHT22;23489;49.600;6.138;2022-09-03T12:44:23;17.30;99.90
37646;DHT22;23489;49.600;6.138;2022-09-03T12:46:49;17.60;99.90
37646;DHT22;23489;49.600;6.138;2022-09-03T12:49:24;17.90;99.90
37646;DHT22;23489;49.600;6.138;2022-09-03T12:51:49;18.30;99.90
37646;DHT22;23489;49.600;6.138;2022-09-03T12:54:15;18.70;99.90
37646;DHT22;23489;49.600;6.138;2022-09-03T12:56:45;19.10;99.90
37646;DHT22;23489;49.600;6.138;2022-09-03T12:59:15;19.40;99.90
37646;DHT22;23489;49.600;6.138;2022-09-03T13:01:46;19.70;99.90
37646;DHT22;23489;49.600;6.138;2022-09-03T13:04:15;19.90;99.90
37646;DHT22;23489;49.600;6.138;2022-09-03T13:06:47;20.10;99.90
37646;DHT22;23489;49.600;6.138;2022-09-03T13:09:14;20.20;99.90
37646;DHT22;23489;49.600;6.138;2022-09-03T13:11:43;20.50;99.90
37646;DHT22;23489;49.600;6.138;2022-09-03T13:14:12;20.70;99.90
37646;DHT22;23489;49.600;6.138;2022-09-03T13:19:16;21.10;99.90
37646;DHT22;23489;49.600;6.138;2022-09-03T13:24:14;21.50;99.90
37646;DHT22;23489;49.600;6.138;2022-09-03T13:26:46;21.80;99.90
37646;DHT22;23489;49.600;6.138;2022-09-03T13:29:23;22.10;99.90
37646;DHT22;23489;49.600;6.138;2022-09-03T13:31:50;22.20;99.90
37646;DHT22;23489;49.600;6.138;2022-09-03T13:34:19;22.20;99.90
37646;DHT22;23489;49.600;6.138;2022-09-03T13:36:48;22.10;99.90
37646;DHT22;23489;49.600;6.138;2022-09-03T13:39:19;22.00;99.90
37646;DHT22;23489;49.600;6.138;2022-09-03T13:47:01;21.90;99.90
37646;DHT22;23489;49.600;6.138;2022-09-03T13:49:47;22.00;99.90
37646;DHT22;23489;49.600;6.138;2022-09-03T13:55:08;21.90;99.90
37646;DHT22;23489;49.600;6.138;2022-09-03T14:00:07;22.00;99.90
37646;DHT22;23489;49.600;6.138;2022-09-03T14:05:16;22.00;99.90
37646;DHT22;23489;49.600;6.138;2022-09-03T14:07:57;22.10;99.90
37646;DHT22;23489;49.600;6.138;2022-09-03T14:10:37;22.10;99.90
37646;DHT22;23489;49.600;6.138;2022-09-03T14:13:12;22.20;99.90
37646;DHT22;23489;49.600;6.138;2022-09-03T14:15:43;22.20;99.90
37646;DHT22;23489;49.600;6.138;2022-09-03T14:18:15;22.10;99.90
37646;DHT22;23489;49.600;6.138;2022-09-03T14:20:52;22.10;99.90
37646;DHT22;23489;49.600;6.138;2022-09-03T14:25:51;22.00;99.90
37646;DHT22;23489;49.600;6.138;2022-09-03T14:28:24;22.00;99.90
37646;DHT22;23489;49.600;6.138;2022-09-03T14:30:54;22.00;99.90
37646;DHT22;23489;49.600;6.138;2022-09-03T14:38:53;22.00;99.90
37646;DHT22;23489;49.600;6.138;2022-09-03T14:54:10;22.50;99.90
37646;DHT22;23489;49.600;6.138;2022-09-03T15:14:56;22.30;99.90
37646;DHT22;23489;49.600;6.138;2022-09-03T15:23:15;22.30;99.90
37646;DHT22;23489;49.600;6.138;2022-09-03T15:30:42;22.20;99.90
37646;DHT22;23489;49.600;6.138;2022-09-03T15:33:12;22.10;99.90
37646;DHT22;23489;49.600;6.138;2022-09-03T15:35:50;22.00;99.90
37646;DHT22;23489;49.600;6.138;2022-09-03T15:41:27;21.90;99.90
37646;DHT22;23489;49.600;6.138;2022-09-03T15:43:49;21.90;99.90
37646;DHT22;23489;49.600;6.138;2022-09-03T15:46:36;21.90;99.90
37646;DHT22;23489;49.600;6.138;2022-09-03T15:49:05;21.90;99.90
37646;DHT22;23489;49.600;6.138;2022-09-03T15:51:45;22.00;99.90
37646;DHT22;23489;49.600;6.138;2022-09-03T15:54:22;22.00;99.90
37646;DHT22;23489;49.600;6.138;2022-09-03T15:57:02;22.00;99.90
37646;DHT22;23489;49.600;6.138;2022-09-03T15:59:36;21.90;99.90
37646;DHT22;23489;49.600;6.138;2022-09-03T16:02:17;21.80;99.90
37646;DHT22;23489;49.600;6.138;2022-09-03T16:08:02;21.80;99.90
37646;DHT22;23489;49.600;6.138;2022-09-03T16:10:40;21.80;99.90
37646;DHT22;23489;49.600;6.138;2022-09-03T16:13:22;21.80;99.90
37646;DHT22;23489;49.600;6.138;2022-09-03T16:15:50;21.70;99.90
37646;DHT22;23489;49.600;6.138;2022-09-03T16:18:24;21.70;99.90
37646;DHT22;23489;49.600;6.138;2022-09-03T16:20:58;21.70;99.90
37646;DHT22;23489;49.600;6.138;2022-09-03T16:23:26;21.70;99.90
37646;DHT22;23489;49.600;6.138;2022-09-03T16:25:56;21.70;99.90
37646;DHT22;23489;49.600;6.138;2022-09-03T16:28:27;21.60;99.90
37646;DHT22;23489;49.600;6.138;2022-09-03T16:31:37;21.60;99.90
37646;DHT22;23489;49.600;6.138;2022-09-03T16:34:01;21.60;99.90
37646;DHT22;23489;49.600;6.138;2022-09-03T16:49:34;21.60;99.90
37646;DHT22;23489;49.600;6.138;2022-09-03T16:52:20;21.60;99.90
37646;DHT22;23489;49.600;6.138;2022-09-03T16:57:38;21.70;99.90
37646;DHT22;23489;49.600;6.138;2022-09-03T17:00:15;21.70;99.90
37646;DHT22;23489;49.600;6.138;2022-09-03T17:08:23;21.60;99.90
37646;DHT22;23489;49.600;6.138;2022-09-03T17:10:52;21.50;99.90
37646;DHT22;23489;49.600;6.138;2022-09-03T17:13:36;21.40;99.90
37646;DHT22;23489;49.600;6.138;2022-09-03T17:18:58;21.30;99.90
37646;DHT22;23489;49.600;6.138;2022-09-03T17:21:34;21.40;99.90
37646;DHT22;23489;49.600;6.138;2022-09-03T17:24:08;21.30;99.90
37646;DHT22;23489;49.600;6.138;2022-09-03T17:31:28;21.00;99.90
37646;DHT22;23489;49.600;6.138;2022-09-03T17:36:37;20.80;99.90
37646;DHT22;23489;49.600;6.138;2022-09-03T17:44:11;20.50;99.90
37646;DHT22;23489;49.600;6.138;2022-09-03T17:46:46;20.40;99.90
37646;DHT22;23489;49.600;6.138;2022-09-03T17:52:19;20.30;99.90
37646;DHT22;23489;49.600;6.138;2022-09-03T17:54:50;20.30;99.90
37646;DHT22;23489;49.600;6.138;2022-09-03T17:57:30;20.20;99.90
37646;DHT22;23489;49.600;6.138;2022-09-03T18:00:00;20.20;99.90
37646;DHT22;23489;49.600;6.138;2022-09-03T18:02:37;20.10;99.90
37646;DHT22;23489;49.600;6.138;2022-09-03T18:05:17;20.10;99.90
37646;DHT22;23489;49.600;6.138;2022-09-03T18:07:51;20.00;99.90
37646;DHT22;23489;49.600;6.138;2022-09-03T18:13:02;19.90;99.90
37646;DHT22;23489;49.600;6.138;2022-09-03T18:15:31;19.90;99.90
37646;DHT22;23489;49.600;6.138;2022-09-03T18:18:10;19.80;99.90
37646;DHT22;23489;49.600;6.138;2022-09-03T18:20:58;19.70;99.90
37646;DHT22;23489;49.600;6.138;2022-09-03T18:24:00;19.70;99.90
37646;DHT22;23489;49.600;6.138;2022-09-03T18:26:47;19.60;99.90
37646;DHT22;23489;49.600;6.138;2022-09-03T18:32:16;19.60;99.90
37646;DHT22;23489;49.600;6.138;2022-09-03T18:35:00;19.60;99.90
37646;DHT22;23489;49.600;6.138;2022-09-03T18:37:44;19.50;99.90
37646;DHT22;23489;49.600;6.138;2022-09-03T18:40:35;19.50;99.90
37646;DHT22;23489;49.600;6.138;2022-09-03T18:43:33;19.50;99.90
37646;DHT22;23489;49.600;6.138;2022-09-03T18:46:28;19.40;99.90
37646;DHT22;23489;49.600;6.138;2022-09-03T18:49:23;19.40;99.90
37646;DHT22;23489;49.600;6.138;2022-09-03T18:52:13;19.40;99.90
37646;DHT22;23489;49.600;6.138;2022-09-03T18:58:28;19.30;99.90
37646;DHT22;23489;49.600;6.138;2022-09-03T19:01:20;19.30;99.90
37646;DHT22;23489;49.600;6.138;2022-09-03T19:04:14;19.20;99.90
37646;DHT22;23489;49.600;6.138;2022-09-03T19:07:15;19.20;99.90
37646;DHT22;23489;49.600;6.138;2022-09-03T19:10:07;19.20;99.90
37646;DHT22;23489;49.600;6.138;2022-09-03T19:15:58;19.10;99.90
37646;DHT22;23489;49.600;6.138;2022-09-03T19:21:37;19.10;99.90
37646;DHT22;23489;49.600;6.138;2022-09-03T19:24:24;19.10;99.90
37646;DHT22;23489;49.600;6.138;2022-09-03T19:35:41;18.90;99.90
37646;DHT22;23489;49.600;6.138;2022-09-03T19:38:51;18.80;99.90
37646;DHT22;23489;49.600;6.138;2022-09-03T19:42:30;18.80;99.90
37646;DHT22;23489;49.600;6.138;2022-09-03T19:44:52;18.80;99.90
37646;DHT22;23489;49.600;6.138;2022-09-03T19:47:42;18.70;99.90
37646;DHT22;23489;49.600;6.138;2022-09-03T19:50:29;18.70;99.90
37646;DHT22;23489;49.600;6.138;2022-09-03T19:53:17;18.60;99.90
37646;DHT22;23489;49.600;6.138;2022-09-03T19:56:03;18.60;99.90
37646;DHT22;23489;49.600;6.138;2022-09-03T19:58:51;18.50;99.90
37646;DHT22;23489;49.600;6.138;2022-09-03T20:01:37;18.40;99.90